sensor_id;sensor_type;location;lat;lon;timestamp;P1;durP1;ratioP1;P2;durP2;ratioP2
12910;SDS011;6523;49.758;6.120;2024-03-07T00:01:35;6.93;;;5.83;;
12910;SDS011;6523;49.758;6.120;2024-03-07T00:04:02;8.07;;;5.93;;
12910;SDS011;6523;49.758;6.120;2024-03-07T00:06:28;7.77;;;6.07;;
12910;SDS011;6523;49.758;6.120;2024-03-07T00:08:53;8.83;;;6.70;;
12910;SDS011;6523;49.758;6.120;2024-03-07T00:11:20;9.53;;;6.13;;
12910;SDS011;6523;49.758;6.120;2024-03-07T00:13:45;7.03;;;6.00;;
12910;SDS011;6523;49.758;6.120;2024-03-07T00:16:11;6.90;;;6.20;;
12910;SDS011;6523;49.758;6.120;2024-03-07T00:18:36;8.80;;;6.13;;
12910;SDS011;6523;49.758;6.120;2024-03-07T00:21:02;8.03;;;6.10;;
12910;SDS011;6523;49.758;6.120;2024-03-07T00:23:28;7.67;;;6.17;;
12910;SDS011;6523;49.758;6.120;2024-03-07T00:25:53;6.70;;;6.10;;
12910;SDS011;6523;49.758;6.120;2024-03-07T00:28:19;7.83;;;5.63;;
12910;SDS011;6523;49.758;6.120;2024-03-07T00:30:45;9.07;;;6.20;;
12910;SDS011;6523;49.758;6.120;2024-03-07T00:33:11;6.90;;;6.20;;
12910;SDS011;6523;49.758;6.120;2024-03-07T00:35:37;6.67;;;5.97;;
12910;SDS011;6523;49.758;6.120;2024-03-07T00:38:03;7.63;;;5.80;;
12910;SDS011;6523;49.758;6.120;2024-03-07T00:40:29;6.40;;;5.80;;
12910;SDS011;6523;49.758;6.120;2024-03-07T00:42:54;5.93;;;5.37;;
12910;SDS011;6523;49.758;6.120;2024-03-07T00:45:20;7.47;;;5.63;;
12910;SDS011;6523;49.758;6.120;2024-03-07T00:47:46;7.37;;;5.90;;
12910;SDS011;6523;49.758;6.120;2024-03-07T00:50:13;7.30;;;5.90;;
12910;SDS011;6523;49.758;6.120;2024-03-07T00:52:39;8.07;;;5.90;;
12910;SDS011;6523;49.758;6.120;2024-03-07T00:55:05;9.00;;;6.47;;
12910;SDS011;6523;49.758;6.120;2024-03-07T00:57:34;7.63;;;6.10;;
12910;SDS011;6523;49.758;6.120;2024-03-07T01:00:00;7.93;;;6.10;;
12910;SDS011;6523;49.758;6.120;2024-03-07T01:02:26;11.07;;;6.67;;
12910;SDS011;6523;49.758;6.120;2024-03-07T01:04:52;7.23;;;6.30;;
12910;SDS011;6523;49.758;6.120;2024-03-07T01:07:19;8.23;;;6.13;;
12910;SDS011;6523;49.758;6.120;2024-03-07T01:09:46;8.47;;;6.13;;
12910;SDS011;6523;49.758;6.120;2024-03-07T01:12:12;10.60;;;7.20;;
12910;SDS011;6523;49.758;6.120;2024-03-07T01:14:37;10.07;;;7.00;;
12910;SDS011;6523;49.758;6.120;2024-03-07T01:17:03;11.23;;;7.80;;
12910;SDS011;6523;49.758;6.120;2024-03-07T01:19:32;8.47;;;6.50;;
12910;SDS011;6523;49.758;6.120;2024-03-07T01:21:57;9.83;;;6.77;;
12910;SDS011;6523;49.758;6.120;2024-03-07T01:24:23;11.37;;;7.57;;
12910;SDS011;6523;49.758;6.120;2024-03-07T01:26:49;9.57;;;7.30;;
12910;SDS011;6523;49.758;6.120;2024-03-07T01:29:14;7.07;;;6.10;;
12910;SDS011;6523;49.758;6.120;2024-03-07T01:31:40;10.87;;;6.90;;
12910;SDS011;6523;49.758;6.120;2024-03-07T01:34:06;9.50;;;6.60;;
12910;SDS011;6523;49.758;6.120;2024-03-07T01:36:31;8.70;;;6.73;;
12910;SDS011;6523;49.758;6.120;2024-03-07T01:38:57;9.97;;;6.60;;
12910;SDS011;6523;49.758;6.120;2024-03-07T01:41:22;9.60;;;6.83;;
12910;SDS011;6523;49.758;6.120;2024-03-07T01:43:49;8.50;;;6.30;;
12910;SDS011;6523;49.758;6.120;2024-03-07T01:46:14;11.43;;;6.37;;
12910;SDS011;6523;49.758;6.120;2024-03-07T01:48:40;6.17;;;5.50;;
12910;SDS011;6523;49.758;6.120;2024-03-07T01:51:06;6.37;;;5.50;;
12910;SDS011;6523;49.758;6.120;2024-03-07T01:53:33;7.60;;;5.83;;
12910;SDS011;6523;49.758;6.120;2024-03-07T01:55:59;7.50;;;5.53;;
12910;SDS011;6523;49.758;6.120;2024-03-07T01:58:27;5.67;;;5.07;;
12910;SDS011;6523;49.758;6.120;2024-03-07T02:00:54;6.47;;;5.67;;
12910;SDS011;6523;49.758;6.120;2024-03-07T02:03:20;6.30;;;5.70;;
12910;SDS011;6523;49.758;6.120;2024-03-07T02:05:45;7.00;;;5.53;;
12910;SDS011;6523;49.758;6.120;2024-03-07T02:08:11;7.73;;;5.87;;
12910;SDS011;6523;49.758;6.120;2024-03-07T02:10:37;6.67;;;5.33;;
12910;SDS011;6523;49.758;6.120;2024-03-07T02:13:03;8.43;;;6.23;;
12910;SDS011;6523;49.758;6.120;2024-03-07T02:15:28;8.10;;;6.53;;
12910;SDS011;6523;49.758;6.120;2024-03-07T02:17:54;9.23;;;6.37;;
12910;SDS011;6523;49.758;6.120;2024-03-07T02:20:20;7.50;;;6.70;;
12910;SDS011;6523;49.758;6.120;2024-03-07T02:22:46;7.67;;;6.33;;
12910;SDS011;6523;49.758;6.120;2024-03-07T02:25:11;9.97;;;6.23;;
12910;SDS011;6523;49.758;6.120;2024-03-07T02:27:37;9.80;;;6.17;;
12910;SDS011;6523;49.758;6.120;2024-03-07T02:30:03;9.77;;;6.60;;
12910;SDS011;6523;49.758;6.120;2024-03-07T02:32:30;9.10;;;7.03;;
12910;SDS011;6523;49.758;6.120;2024-03-07T02:34:56;9.73;;;7.30;;
12910;SDS011;6523;49.758;6.120;2024-03-07T02:37:22;11.70;;;8.30;;
12910;SDS011;6523;49.758;6.120;2024-03-07T02:39:47;9.60;;;7.53;;
12910;SDS011;6523;49.758;6.120;2024-03-07T02:42:13;10.93;;;7.40;;
12910;SDS011;6523;49.758;6.120;2024-03-07T02:44:39;11.73;;;8.00;;
12910;SDS011;6523;49.758;6.120;2024-03-07T02:47:05;13.30;;;8.27;;
12910;SDS011;6523;49.758;6.120;2024-03-07T02:49:31;13.70;;;9.17;;
12910;SDS011;6523;49.758;6.120;2024-03-07T02:51:57;20.93;;;11.83;;
12910;SDS011;6523;49.758;6.120;2024-03-07T02:54:23;24.97;;;15.07;;
12910;SDS011;6523;49.758;6.120;2024-03-07T02:56:48;23.33;;;14.83;;
12910;SDS011;6523;49.758;6.120;2024-03-07T02:59:14;26.73;;;15.77;;
12910;SDS011;6523;49.758;6.120;2024-03-07T03:01:40;25.73;;;16.40;;
12910;SDS011;6523;49.758;6.120;2024-03-07T03:04:06;30.23;;;16.80;;
12910;SDS011;6523;49.758;6.120;2024-03-07T03:06:31;33.17;;;18.10;;
12910;SDS011;6523;49.758;6.120;2024-03-07T03:08:57;28.17;;;16.23;;
12910;SDS011;6523;49.758;6.120;2024-03-07T03:11:23;33.60;;;18.90;;
12910;SDS011;6523;49.758;6.120;2024-03-07T03:13:50;30.07;;;16.63;;
12910;SDS011;6523;49.758;6.120;2024-03-07T03:16:16;28.17;;;16.27;;
12910;SDS011;6523;49.758;6.120;2024-03-07T03:18:42;36.70;;;19.83;;
12910;SDS011;6523;49.758;6.120;2024-03-07T03:21:08;33.77;;;19.20;;
12910;SDS011;6523;49.758;6.120;2024-03-07T03:23:34;31.70;;;18.67;;
12910;SDS011;6523;49.758;6.120;2024-03-07T03:25:59;35.17;;;18.77;;
12910;SDS011;6523;49.758;6.120;2024-03-07T03:28:25;29.93;;;17.77;;
12910;SDS011;6523;49.758;6.120;2024-03-07T03:30:51;29.77;;;17.80;;
12910;SDS011;6523;49.758;6.120;2024-03-07T03:33:18;33.33;;;18.93;;
12910;SDS011;6523;49.758;6.120;2024-03-07T03:35:43;36.50;;;21.50;;
12910;SDS011;6523;49.758;6.120;2024-03-07T03:38:09;34.43;;;19.83;;
12910;SDS011;6523;49.758;6.120;2024-03-07T03:40:35;34.10;;;19.30;;
12910;SDS011;6523;49.758;6.120;2024-03-07T03:43:01;34.23;;;19.10;;
12910;SDS011;6523;49.758;6.120;2024-03-07T03:45:27;33.70;;;19.73;;
12910;SDS011;6523;49.758;6.120;2024-03-07T03:47:52;36.73;;;20.47;;
12910;SDS011;6523;49.758;6.120;2024-03-07T03:50:18;31.63;;;19.30;;
12910;SDS011;6523;49.758;6.120;2024-03-07T03:52:44;32.87;;;17.83;;
12910;SDS011;6523;49.758;6.120;2024-03-07T03:55:10;32.97;;;18.60;;
12910;SDS011;6523;49.758;6.120;2024-03-07T03:57:37;29.57;;;18.33;;
12910;SDS011;6523;49.758;6.120;2024-03-07T04:00:04;30.57;;;18.83;;
12910;SDS011;6523;49.758;6.120;2024-03-07T04:02:37;30.50;;;18.53;;
12910;SDS011;6523;49.758;6.120;2024-03-07T04:05:04;32.77;;;19.83;;
12910;SDS011;6523;49.758;6.120;2024-03-07T04:07:29;36.57;;;20.43;;
12910;SDS011;6523;49.758;6.120;2024-03-07T04:09:58;33.83;;;19.20;;
12910;SDS011;6523;49.758;6.120;2024-03-07T04:12:23;31.30;;;18.90;;
12910;SDS011;6523;49.758;6.120;2024-03-07T04:14:51;32.10;;;19.00;;
12910;SDS011;6523;49.758;6.120;2024-03-07T04:17:19;28.10;;;17.40;;
12910;SDS011;6523;49.758;6.120;2024-03-07T04:19:45;32.73;;;20.20;;
12910;SDS011;6523;49.758;6.120;2024-03-07T04:22:11;35.10;;;19.80;;
12910;SDS011;6523;49.758;6.120;2024-03-07T04:24:37;32.03;;;19.83;;
12910;SDS011;6523;49.758;6.120;2024-03-07T04:27:03;30.63;;;18.17;;
12910;SDS011;6523;49.758;6.120;2024-03-07T04:29:30;32.53;;;19.67;;
12910;SDS011;6523;49.758;6.120;2024-03-07T04:31:57;32.23;;;19.00;;
12910;SDS011;6523;49.758;6.120;2024-03-07T04:34:23;33.90;;;20.27;;
12910;SDS011;6523;49.758;6.120;2024-03-07T04:36:48;32.60;;;20.97;;
12910;SDS011;6523;49.758;6.120;2024-03-07T04:39:14;34.73;;;20.80;;
12910;SDS011;6523;49.758;6.120;2024-03-07T04:41:50;37.63;;;19.97;;
12910;SDS011;6523;49.758;6.120;2024-03-07T04:44:17;35.83;;;20.57;;
12910;SDS011;6523;49.758;6.120;2024-03-07T04:46:43;39.43;;;21.50;;
12910;SDS011;6523;49.758;6.120;2024-03-07T04:49:09;31.60;;;19.57;;
12910;SDS011;6523;49.758;6.120;2024-03-07T04:51:34;33.17;;;18.97;;
12910;SDS011;6523;49.758;6.120;2024-03-07T04:54:00;32.90;;;20.03;;
12910;SDS011;6523;49.758;6.120;2024-03-07T04:56:26;36.47;;;20.00;;
12910;SDS011;6523;49.758;6.120;2024-03-07T04:58:52;29.03;;;18.13;;
12910;SDS011;6523;49.758;6.120;2024-03-07T05:01:19;36.47;;;19.90;;
12910;SDS011;6523;49.758;6.120;2024-03-07T05:03:45;38.23;;;21.70;;
12910;SDS011;6523;49.758;6.120;2024-03-07T05:06:11;36.80;;;21.67;;
12910;SDS011;6523;49.758;6.120;2024-03-07T05:08:36;35.53;;;21.97;;
12910;SDS011;6523;49.758;6.120;2024-03-07T05:11:02;41.37;;;22.00;;
12910;SDS011;6523;49.758;6.120;2024-03-07T05:13:29;37.87;;;21.43;;
12910;SDS011;6523;49.758;6.120;2024-03-07T05:15:56;32.93;;;19.70;;
12910;SDS011;6523;49.758;6.120;2024-03-07T05:18:22;39.73;;;21.57;;
12910;SDS011;6523;49.758;6.120;2024-03-07T05:20:48;33.40;;;20.40;;
12910;SDS011;6523;49.758;6.120;2024-03-07T05:23:14;39.93;;;22.40;;
12910;SDS011;6523;49.758;6.120;2024-03-07T05:25:39;43.57;;;23.13;;
12910;SDS011;6523;49.758;6.120;2024-03-07T05:28:05;45.97;;;23.67;;
12910;SDS011;6523;49.758;6.120;2024-03-07T05:30:31;36.60;;;20.80;;
12910;SDS011;6523;49.758;6.120;2024-03-07T05:32:58;39.40;;;22.43;;
12910;SDS011;6523;49.758;6.120;2024-03-07T05:35:25;38.50;;;21.30;;
12910;SDS011;6523;49.758;6.120;2024-03-07T05:37:54;43.93;;;23.80;;
12910;SDS011;6523;49.758;6.120;2024-03-07T05:40:21;40.23;;;23.50;;
12910;SDS011;6523;49.758;6.120;2024-03-07T05:42:47;37.40;;;21.00;;
12910;SDS011;6523;49.758;6.120;2024-03-07T05:45:13;38.40;;;22.23;;
12910;SDS011;6523;49.758;6.120;2024-03-07T05:47:40;39.07;;;21.93;;
12910;SDS011;6523;49.758;6.120;2024-03-07T05:50:06;37.90;;;21.43;;
12910;SDS011;6523;49.758;6.120;2024-03-07T05:52:34;39.03;;;21.70;;
12910;SDS011;6523;49.758;6.120;2024-03-07T05:55:00;38.40;;;20.97;;
12910;SDS011;6523;49.758;6.120;2024-03-07T05:57:25;35.93;;;21.27;;
12910;SDS011;6523;49.758;6.120;2024-03-07T05:59:51;37.23;;;21.57;;
12910;SDS011;6523;49.758;6.120;2024-03-07T06:02:17;41.50;;;21.80;;
12910;SDS011;6523;49.758;6.120;2024-03-07T06:04:43;35.23;;;21.80;;
12910;SDS011;6523;49.758;6.120;2024-03-07T06:07:08;40.50;;;22.50;;
12910;SDS011;6523;49.758;6.120;2024-03-07T06:09:36;38.83;;;21.90;;
12910;SDS011;6523;49.758;6.120;2024-03-07T06:12:01;38.33;;;21.53;;
12910;SDS011;6523;49.758;6.120;2024-03-07T06:14:29;42.93;;;22.77;;
12910;SDS011;6523;49.758;6.120;2024-03-07T06:16:55;42.93;;;23.27;;
12910;SDS011;6523;49.758;6.120;2024-03-07T06:19:23;41.83;;;22.73;;
12910;SDS011;6523;49.758;6.120;2024-03-07T06:21:49;39.10;;;22.03;;
12910;SDS011;6523;49.758;6.120;2024-03-07T06:24:14;41.57;;;23.27;;
12910;SDS011;6523;49.758;6.120;2024-03-07T06:26:42;43.00;;;23.77;;
12910;SDS011;6523;49.758;6.120;2024-03-07T06:29:14;49.83;;;24.77;;
12910;SDS011;6523;49.758;6.120;2024-03-07T06:31:41;37.90;;;21.20;;
12910;SDS011;6523;49.758;6.120;2024-03-07T06:34:07;39.60;;;22.10;;
12910;SDS011;6523;49.758;6.120;2024-03-07T06:36:33;40.70;;;22.37;;
12910;SDS011;6523;49.758;6.120;2024-03-07T06:38:59;43.40;;;23.83;;
12910;SDS011;6523;49.758;6.120;2024-03-07T06:41:25;42.40;;;22.83;;
12910;SDS011;6523;49.758;6.120;2024-03-07T06:43:51;42.73;;;23.83;;
12910;SDS011;6523;49.758;6.120;2024-03-07T06:46:20;42.47;;;22.77;;
12910;SDS011;6523;49.758;6.120;2024-03-07T06:48:45;37.27;;;21.60;;
12910;SDS011;6523;49.758;6.120;2024-03-07T06:51:11;43.83;;;24.20;;
12910;SDS011;6523;49.758;6.120;2024-03-07T06:53:38;45.47;;;23.60;;
12910;SDS011;6523;49.758;6.120;2024-03-07T06:56:04;47.10;;;23.93;;
12910;SDS011;6523;49.758;6.120;2024-03-07T06:58:31;47.23;;;24.00;;
12910;SDS011;6523;49.758;6.120;2024-03-07T07:00:57;48.20;;;25.20;;
12910;SDS011;6523;49.758;6.120;2024-03-07T07:03:24;48.10;;;25.30;;
12910;SDS011;6523;49.758;6.120;2024-03-07T07:05:50;49.23;;;26.13;;
12910;SDS011;6523;49.758;6.120;2024-03-07T07:08:15;56.03;;;27.83;;
12910;SDS011;6523;49.758;6.120;2024-03-07T07:10:42;56.17;;;29.17;;
12910;SDS011;6523;49.758;6.120;2024-03-07T07:13:08;56.87;;;29.40;;
12910;SDS011;6523;49.758;6.120;2024-03-07T07:15:35;61.70;;;31.50;;
12910;SDS011;6523;49.758;6.120;2024-03-07T07:18:01;64.73;;;31.43;;
12910;SDS011;6523;49.758;6.120;2024-03-07T07:20:28;58.83;;;29.83;;
12910;SDS011;6523;49.758;6.120;2024-03-07T07:22:53;58.23;;;29.43;;
12910;SDS011;6523;49.758;6.120;2024-03-07T07:25:19;66.27;;;32.40;;
12910;SDS011;6523;49.758;6.120;2024-03-07T07:27:47;67.47;;;32.33;;
12910;SDS011;6523;49.758;6.120;2024-03-07T07:30:14;60.83;;;32.30;;
12910;SDS011;6523;49.758;6.120;2024-03-07T07:32:41;63.43;;;33.03;;
12910;SDS011;6523;49.758;6.120;2024-03-07T07:35:08;67.33;;;32.90;;
12910;SDS011;6523;49.758;6.120;2024-03-07T07:37:44;57.80;;;30.73;;
12910;SDS011;6523;49.758;6.120;2024-03-07T07:40:12;58.83;;;31.60;;
12910;SDS011;6523;49.758;6.120;2024-03-07T07:42:40;61.50;;;33.33;;
12910;SDS011;6523;49.758;6.120;2024-03-07T07:45:08;61.10;;;32.93;;
12910;SDS011;6523;49.758;6.120;2024-03-07T07:47:41;61.40;;;31.30;;
12910;SDS011;6523;49.758;6.120;2024-03-07T07:50:08;63.27;;;31.90;;
12910;SDS011;6523;49.758;6.120;2024-03-07T07:52:42;63.40;;;33.37;;
12910;SDS011;6523;49.758;6.120;2024-03-07T07:55:12;58.47;;;30.60;;
12910;SDS011;6523;49.758;6.120;2024-03-07T07:57:45;60.57;;;31.00;;
12910;SDS011;6523;49.758;6.120;2024-03-07T08:00:19;61.53;;;31.17;;
12910;SDS011;6523;49.758;6.120;2024-03-07T08:02:59;58.57;;;31.77;;
12910;SDS011;6523;49.758;6.120;2024-03-07T08:05:29;61.30;;;30.70;;
12910;SDS011;6523;49.758;6.120;2024-03-07T08:07:58;58.27;;;30.80;;
12910;SDS011;6523;49.758;6.120;2024-03-07T08:10:25;57.47;;;29.53;;
12910;SDS011;6523;49.758;6.120;2024-03-07T08:12:53;57.57;;;30.30;;
12910;SDS011;6523;49.758;6.120;2024-03-07T08:15:19;53.90;;;30.27;;
12910;SDS011;6523;49.758;6.120;2024-03-07T08:17:46;52.23;;;29.50;;
12910;SDS011;6523;49.758;6.120;2024-03-07T08:20:13;50.67;;;29.20;;
12910;SDS011;6523;49.758;6.120;2024-03-07T08:22:42;52.47;;;31.23;;
12910;SDS011;6523;49.758;6.120;2024-03-07T08:25:09;55.83;;;30.63;;
12910;SDS011;6523;49.758;6.120;2024-03-07T08:27:36;49.00;;;28.50;;
12910;SDS011;6523;49.758;6.120;2024-03-07T08:30:03;50.97;;;28.97;;
12910;SDS011;6523;49.758;6.120;2024-03-07T08:32:33;53.23;;;29.00;;
12910;SDS011;6523;49.758;6.120;2024-03-07T08:35:02;50.93;;;28.57;;
12910;SDS011;6523;49.758;6.120;2024-03-07T08:37:31;49.33;;;28.17;;
12910;SDS011;6523;49.758;6.120;2024-03-07T08:40:04;49.63;;;28.33;;
12910;SDS011;6523;49.758;6.120;2024-03-07T08:42:32;47.73;;;27.83;;
12910;SDS011;6523;49.758;6.120;2024-03-07T08:44:59;45.33;;;26.77;;
12910;SDS011;6523;49.758;6.120;2024-03-07T08:47:30;47.90;;;28.10;;
12910;SDS011;6523;49.758;6.120;2024-03-07T08:49:56;47.07;;;28.77;;
12910;SDS011;6523;49.758;6.120;2024-03-07T08:52:22;45.67;;;26.07;;
12910;SDS011;6523;49.758;6.120;2024-03-07T08:54:47;45.73;;;26.07;;
12910;SDS011;6523;49.758;6.120;2024-03-07T08:57:13;42.10;;;25.63;;
12910;SDS011;6523;49.758;6.120;2024-03-07T08:59:42;41.20;;;25.50;;
12910;SDS011;6523;49.758;6.120;2024-03-07T09:02:08;41.20;;;25.17;;
12910;SDS011;6523;49.758;6.120;2024-03-07T09:04:35;41.63;;;24.43;;
12910;SDS011;6523;49.758;6.120;2024-03-07T09:07:01;37.63;;;23.80;;
12910;SDS011;6523;49.758;6.120;2024-03-07T09:09:27;33.60;;;22.23;;
12910;SDS011;6523;49.758;6.120;2024-03-07T09:11:52;37.73;;;23.90;;
12910;SDS011;6523;49.758;6.120;2024-03-07T09:14:18;36.70;;;22.63;;
12910;SDS011;6523;49.758;6.120;2024-03-07T09:16:43;32.03;;;21.93;;
12910;SDS011;6523;49.758;6.120;2024-03-07T09:19:09;33.33;;;20.73;;
12910;SDS011;6523;49.758;6.120;2024-03-07T09:21:39;35.57;;;22.00;;
12910;SDS011;6523;49.758;6.120;2024-03-07T09:24:05;32.50;;;20.70;;
12910;SDS011;6523;49.758;6.120;2024-03-07T09:26:32;33.20;;;21.13;;
12910;SDS011;6523;49.758;6.120;2024-03-07T09:28:58;32.70;;;21.27;;
12910;SDS011;6523;49.758;6.120;2024-03-07T09:31:30;32.30;;;21.00;;
12910;SDS011;6523;49.758;6.120;2024-03-07T09:33:59;32.20;;;20.20;;
12910;SDS011;6523;49.758;6.120;2024-03-07T09:36:25;33.13;;;21.67;;
12910;SDS011;6523;49.758;6.120;2024-03-07T09:38:51;32.37;;;20.93;;
12910;SDS011;6523;49.758;6.120;2024-03-07T09:41:18;32.23;;;20.57;;
12910;SDS011;6523;49.758;6.120;2024-03-07T09:43:45;32.90;;;20.97;;
12910;SDS011;6523;49.758;6.120;2024-03-07T09:46:12;31.23;;;19.67;;
12910;SDS011;6523;49.758;6.120;2024-03-07T09:48:39;26.63;;;19.07;;
12910;SDS011;6523;49.758;6.120;2024-03-07T09:51:05;27.30;;;17.73;;
12910;SDS011;6523;49.758;6.120;2024-03-07T09:53:36;30.93;;;19.53;;
12910;SDS011;6523;49.758;6.120;2024-03-07T09:56:03;27.40;;;19.20;;
12910;SDS011;6523;49.758;6.120;2024-03-07T09:58:31;28.23;;;17.83;;
12910;SDS011;6523;49.758;6.120;2024-03-07T10:00:58;25.13;;;16.33;;
12910;SDS011;6523;49.758;6.120;2024-03-07T10:03:28;23.97;;;16.80;;
12910;SDS011;6523;49.758;6.120;2024-03-07T10:05:55;25.13;;;17.33;;
12910;SDS011;6523;49.758;6.120;2024-03-07T10:08:21;24.30;;;17.17;;
12910;SDS011;6523;49.758;6.120;2024-03-07T10:10:49;23.30;;;16.23;;
12910;SDS011;6523;49.758;6.120;2024-03-07T10:13:16;24.50;;;16.80;;
12910;SDS011;6523;49.758;6.120;2024-03-07T10:15:43;23.67;;;16.07;;
12910;SDS011;6523;49.758;6.120;2024-03-07T10:18:09;25.10;;;17.33;;
12910;SDS011;6523;49.758;6.120;2024-03-07T10:20:36;24.10;;;16.73;;
12910;SDS011;6523;49.758;6.120;2024-03-07T10:23:02;26.43;;;17.27;;
12910;SDS011;6523;49.758;6.120;2024-03-07T10:25:28;25.27;;;16.50;;
12910;SDS011;6523;49.758;6.120;2024-03-07T10:27:54;25.07;;;16.60;;
12910;SDS011;6523;49.758;6.120;2024-03-07T10:30:20;25.93;;;16.73;;
12910;SDS011;6523;49.758;6.120;2024-03-07T10:32:53;23.80;;;16.53;;
12910;SDS011;6523;49.758;6.120;2024-03-07T10:35:21;26.57;;;16.87;;
12910;SDS011;6523;49.758;6.120;2024-03-07T10:37:49;23.63;;;16.77;;
12910;SDS011;6523;49.758;6.120;2024-03-07T10:40:19;25.87;;;16.73;;
12910;SDS011;6523;49.758;6.120;2024-03-07T10:42:47;22.90;;;16.60;;
12910;SDS011;6523;49.758;6.120;2024-03-07T10:45:22;24.27;;;17.30;;
12910;SDS011;6523;49.758;6.120;2024-03-07T10:47:55;22.63;;;16.27;;
12910;SDS011;6523;49.758;6.120;2024-03-07T11:00:58;22.13;;;15.40;;
12910;SDS011;6523;49.758;6.120;2024-03-07T11:03:28;21.67;;;15.17;;
12910;SDS011;6523;49.758;6.120;2024-03-07T11:05:57;20.53;;;14.30;;
12910;SDS011;6523;49.758;6.120;2024-03-07T11:08:25;19.77;;;14.97;;
12910;SDS011;6523;49.758;6.120;2024-03-07T11:10:51;22.23;;;15.17;;
12910;SDS011;6523;49.758;6.120;2024-03-07T11:13:17;18.27;;;14.40;;
12910;SDS011;6523;49.758;6.120;2024-03-07T11:15:44;18.10;;;13.43;;
12910;SDS011;6523;49.758;6.120;2024-03-07T11:18:12;18.37;;;14.13;;
12910;SDS011;6523;49.758;6.120;2024-03-07T11:20:38;19.50;;;14.07;;
12910;SDS011;6523;49.758;6.120;2024-03-07T11:23:47;18.13;;;13.47;;
12910;SDS011;6523;49.758;6.120;2024-03-07T11:28:36;20.03;;;15.03;;
12910;SDS011;6523;49.758;6.120;2024-03-07T11:31:13;21.33;;;15.00;;
12910;SDS011;6523;49.758;6.120;2024-03-07T11:33:39;19.23;;;13.97;;
12910;SDS011;6523;49.758;6.120;2024-03-07T11:36:09;20.37;;;14.40;;
12910;SDS011;6523;49.758;6.120;2024-03-07T11:38:37;18.27;;;15.27;;
12910;SDS011;6523;49.758;6.120;2024-03-07T11:41:15;20.53;;;14.33;;
12910;SDS011;6523;49.758;6.120;2024-03-07T11:43:44;19.30;;;14.20;;
12910;SDS011;6523;49.758;6.120;2024-03-07T11:46:11;17.83;;;14.70;;
12910;SDS011;6523;49.758;6.120;2024-03-07T11:48:41;18.03;;;14.43;;
12910;SDS011;6523;49.758;6.120;2024-03-07T11:51:07;17.27;;;14.10;;
12910;SDS011;6523;49.758;6.120;2024-03-07T11:53:39;17.80;;;14.23;;
12910;SDS011;6523;49.758;6.120;2024-03-07T11:56:06;18.10;;;13.53;;
12910;SDS011;6523;49.758;6.120;2024-03-07T11:58:37;16.13;;;13.30;;
12910;SDS011;6523;49.758;6.120;2024-03-07T12:01:06;16.97;;;13.00;;
12910;SDS011;6523;49.758;6.120;2024-03-07T12:03:35;17.17;;;13.07;;
12910;SDS011;6523;49.758;6.120;2024-03-07T12:06:02;17.60;;;13.97;;
12910;SDS011;6523;49.758;6.120;2024-03-07T12:08:28;17.93;;;13.40;;
12910;SDS011;6523;49.758;6.120;2024-03-07T12:10:54;15.67;;;13.43;;
12910;SDS011;6523;49.758;6.120;2024-03-07T12:13:21;16.43;;;14.63;;
12910;SDS011;6523;49.758;6.120;2024-03-07T12:15:49;17.57;;;13.47;;
12910;SDS011;6523;49.758;6.120;2024-03-07T12:18:20;17.73;;;13.63;;
12910;SDS011;6523;49.758;6.120;2024-03-07T12:20:49;14.47;;;12.60;;
12910;SDS011;6523;49.758;6.120;2024-03-07T12:23:23;15.17;;;12.43;;
12910;SDS011;6523;49.758;6.120;2024-03-07T12:26:09;14.77;;;12.13;;
12910;SDS011;6523;49.758;6.120;2024-03-07T12:28:40;16.60;;;12.80;;
12910;SDS011;6523;49.758;6.120;2024-03-07T12:31:08;16.17;;;12.83;;
12910;SDS011;6523;49.758;6.120;2024-03-07T12:33:41;16.90;;;13.07;;
12910;SDS011;6523;49.758;6.120;2024-03-07T12:36:11;14.77;;;12.17;;
12910;SDS011;6523;49.758;6.120;2024-03-07T12:38:38;16.73;;;12.90;;
12910;SDS011;6523;49.758;6.120;2024-03-07T12:41:06;14.67;;;12.43;;
12910;SDS011;6523;49.758;6.120;2024-03-07T12:43:38;15.67;;;12.37;;
12910;SDS011;6523;49.758;6.120;2024-03-07T12:46:07;15.30;;;12.77;;
12910;SDS011;6523;49.758;6.120;2024-03-07T12:48:37;17.00;;;12.37;;
12910;SDS011;6523;49.758;6.120;2024-03-07T12:51:03;14.30;;;12.60;;
12910;SDS011;6523;49.758;6.120;2024-03-07T12:53:30;15.33;;;12.40;;
12910;SDS011;6523;49.758;6.120;2024-03-07T12:55:56;14.73;;;12.73;;
12910;SDS011;6523;49.758;6.120;2024-03-07T12:58:22;14.47;;;12.20;;
12910;SDS011;6523;49.758;6.120;2024-03-07T13:00:51;14.30;;;12.43;;
12910;SDS011;6523;49.758;6.120;2024-03-07T13:03:17;17.03;;;12.53;;
12910;SDS011;6523;49.758;6.120;2024-03-07T13:05:43;15.80;;;12.90;;
12910;SDS011;6523;49.758;6.120;2024-03-07T13:08:10;16.03;;;12.70;;
12910;SDS011;6523;49.758;6.120;2024-03-07T13:10:42;14.07;;;11.50;;
12910;SDS011;6523;49.758;6.120;2024-03-07T13:13:08;15.17;;;12.57;;
12910;SDS011;6523;49.758;6.120;2024-03-07T13:15:37;13.93;;;11.97;;
12910;SDS011;6523;49.758;6.120;2024-03-07T13:18:04;15.03;;;12.77;;
12910;SDS011;6523;49.758;6.120;2024-03-07T13:20:30;15.27;;;12.23;;
12910;SDS011;6523;49.758;6.120;2024-03-07T13:22:56;13.53;;;12.10;;
12910;SDS011;6523;49.758;6.120;2024-03-07T13:25:24;14.60;;;11.80;;
12910;SDS011;6523;49.758;6.120;2024-03-07T13:28:09;13.20;;;11.07;;
12910;SDS011;6523;49.758;6.120;2024-03-07T13:30:49;13.47;;;11.60;;
12910;SDS011;6523;49.758;6.120;2024-03-07T13:33:15;14.17;;;11.43;;
12910;SDS011;6523;49.758;6.120;2024-03-07T13:35:42;15.50;;;12.17;;
12910;SDS011;6523;49.758;6.120;2024-03-07T13:38:09;14.73;;;11.53;;
12910;SDS011;6523;49.758;6.120;2024-03-07T13:40:34;15.00;;;11.63;;
12910;SDS011;6523;49.758;6.120;2024-03-07T13:43:03;17.07;;;12.03;;
12910;SDS011;6523;49.758;6.120;2024-03-07T13:45:31;14.50;;;12.10;;
12910;SDS011;6523;49.758;6.120;2024-03-07T13:48:04;13.53;;;11.03;;
12910;SDS011;6523;49.758;6.120;2024-03-07T13:50:31;14.37;;;12.03;;
12910;SDS011;6523;49.758;6.120;2024-03-07T13:52:59;16.27;;;12.27;;
12910;SDS011;6523;49.758;6.120;2024-03-07T13:58:47;13.87;;;11.83;;
12910;SDS011;6523;49.758;6.120;2024-03-07T14:12:32;13.30;;;11.57;;
12910;SDS011;6523;49.758;6.120;2024-03-07T14:27:49;15.80;;;12.20;;
12910;SDS011;6523;49.758;6.120;2024-03-07T14:30:54;15.20;;;12.50;;
12910;SDS011;6523;49.758;6.120;2024-03-07T14:33:28;14.73;;;12.60;;
12910;SDS011;6523;49.758;6.120;2024-03-07T14:38:51;15.37;;;12.07;;
12910;SDS011;6523;49.758;6.120;2024-03-07T14:41:19;15.43;;;12.83;;
12910;SDS011;6523;49.758;6.120;2024-03-07T14:43:49;16.17;;;12.60;;
12910;SDS011;6523;49.758;6.120;2024-03-07T14:46:16;14.97;;;12.90;;
12910;SDS011;6523;49.758;6.120;2024-03-07T14:48:42;15.50;;;12.30;;
12910;SDS011;6523;49.758;6.120;2024-03-07T14:51:09;13.87;;;12.37;;
12910;SDS011;6523;49.758;6.120;2024-03-07T14:53:38;14.50;;;12.90;;
12910;SDS011;6523;49.758;6.120;2024-03-07T14:56:06;16.67;;;12.90;;
12910;SDS011;6523;49.758;6.120;2024-03-07T14:58:32;16.67;;;13.67;;
12910;SDS011;6523;49.758;6.120;2024-03-07T15:00:58;14.30;;;12.80;;
12910;SDS011;6523;49.758;6.120;2024-03-07T15:03:23;17.43;;;13.17;;
12910;SDS011;6523;49.758;6.120;2024-03-07T15:05:53;13.87;;;12.07;;
12910;SDS011;6523;49.758;6.120;2024-03-07T15:08:19;16.27;;;13.33;;
12910;SDS011;6523;49.758;6.120;2024-03-07T15:10:52;15.50;;;12.83;;
12910;SDS011;6523;49.758;6.120;2024-03-07T15:13:22;16.20;;;12.47;;
12910;SDS011;6523;49.758;6.120;2024-03-07T15:15:48;16.60;;;12.43;;
12910;SDS011;6523;49.758;6.120;2024-03-07T15:18:13;14.50;;;12.83;;
12910;SDS011;6523;49.758;6.120;2024-03-07T15:20:39;15.77;;;13.47;;
12910;SDS011;6523;49.758;6.120;2024-03-07T15:23:06;15.23;;;12.77;;